x

8413320 - Bar Harbor, Me (atgm1) Weather Station

6:30 - Fri 4th Sep 2015 All times are EDT. -4 hours from GMT.

  • Wind
    2mph, 5mph gusts
  • Sea Temp 58°f
  • Ar Temp 57°f
  • Sea Pressure 1019.3mb
  • 8413320 - Bar Harbor, Me
  • 8413320 - Bar Harbor, Me

More Historic Weather Station data

Upgrade to MSW Pro to gain access to the past 30 days of data for over 8000 Wavebouys and Weather Stations around the globe.

Join Pro

Comparision Forecast

View Surf forecast
   
Sex 09/04 6:30 2 5 mph 1019.3mb 58f 57f
6:24 3 5 mph 1019.2mb 58f 57f
6:18 3
mph
1019.1mb 58f 57f
6:12 2 3 mph 1019.2mb 59f 57f
6:06 2 3 mph 1019.1mb 58f 57f
6:00 3
mph
1019mb 59f 57f
5:54 2
mph
1018.8mb 59f 58f
5:48 1 2 mph 1018.7mb 58f 57f
5:42 1 3 mph 1018.7mb 58f 58f
5:36 2 3 mph 1018.7mb 58f 58f
5:30  -  2 mph 1018.6mb 58f 58f
5:24 2 3 mph 1018.4mb 58f 58f
5:18 2 5 mph 1018.3mb 58f 58f
5:12  -  2 mph 1018.2mb 58f 58f
5:06 1 3 mph 1018.3mb 59f 58f
5:00 2 3 mph 1018.3mb 59f 58f
4:54 1 6 mph 1018.3mb 59f 58f
4:48 2 6 mph 1018.3mb 59f 58f
4:42 3 5 mph 1018.2mb 59f 58f
4:36 3 6 mph 1018.2mb 59f 58f
4:30 2 5 mph 1018.2mb 59f 58f
4:24 2 5 mph 1018.1mb 59f 58f
4:18 3 5 mph 1018mb 59f 58f
4:12 2 5 mph 1017.9mb 59f 58f
4:06 3 5 mph 1017.9mb 59f 58f
4:00 3 6 mph 1017.7mb 59f 58f
3:54 3 6 mph 1017.6mb 58f 58f
3:48 3 6 mph 1017.4mb 58f 58f
3:42 3 5 mph 1017.4mb 58f 59f
3:36 2 5 mph 1017.3mb 58f 59f
3:30 3 5 mph 1017.2mb 58f 59f
3:24 3 6 mph 1017.2mb 58f 59f
3:18 3 6 mph 1017.1mb 58f 59f
3:12 3 6 mph 1017mb 58f 59f
3:06 2 5 mph 1017.1mb 58f 59f
3:00 5 6 mph 1017mb 58f 60f
2:54 3 6 mph 1017mb 58f 60f
2:48 6 8 mph 1017mb 58f 60f
2:42 7 8 mph 1017mb 58f 60f
2:36 6 9 mph 1017mb 57f 60f
2:30 9 11 mph 1017mb 57f 61f
2:24 8 11 mph 1016.9mb 57f 61f
2:18 7 10 mph 1016.9mb 57f 61f
2:12 9 13 mph 1016.7mb 57f 62f
2:06 10 14 mph 1016.5mb 57f 62f
2:00 11 13 mph 1016.5mb 57f 62f
1:54 8 11 mph 1016.4mb 57f 62f
1:48 8 11 mph 1016.3mb 57f 62f
1:42 8 10 mph 1016.3mb 57f 62f
1:36 7 9 mph 1016.2mb 57f 62f
1:30 7 9 mph 1016.1mb 57f 62f
1:24 7 9 mph 1016.1mb 57f 63f
1:18 6 7 mph 1016.1mb 57f 63f
1:12 6 10 mph 1016.1mb 57f 63f
1:06 6 10 mph 1016.1mb 57f 63f
1:00 6 9 mph 1015.9mb 57f 64f
12:54 5 7 mph 1015.8mb 57f 63f
12:48 6 13 mph 1015.7mb 57f 63f
12:42 6 11 mph 1015.7mb 57f 64f
12:36 5 9 mph 1015.6mb 57f 65f
12:30 6 9 mph 1015.6mb 57f 64f
12:24 6 8 mph 1015.5mb 57f 64f
12:18 5 6 mph 1015.4mb 57f 64f
12:12 3 6 mph 1015.2mb 57f 64f
12:06 5 7 mph 1015.1mb 58f 64f
12:00 6 10 mph 1015.1mb 58f 65f
Qui 09/03 11:54 6 10 mph 1015mb 58f 65f
11:48 5 8 mph 1014.9mb 58f 66f
11:42 1 3 mph 1014.8mb 58f 66f
11:36 1 5 mph 1014.8mb 58f 66f
11:30 1 5 mph 1014.8mb 58f 67f
11:24 1 6 mph 1014.6mb 58f 67f
11:18 5 8 mph 1014.6mb 58f 67f
11:12  -  8 mph 1014.5mb 59f 67f
11:06 1 8 mph 1014.3mb 59f 67f
11:00 3 7 mph 1014.3mb 59f 67f
10:54 5 8 mph 1014.3mb 59f 67f
10:48 5 9 mph 1014.3mb 59f 67f
10:42 7 9 mph 1014.2mb 59f 67f
10:36 9 11 mph 1014mb 59f 68f
10:30 7 9 mph 1013.9mb 59f 69f
10:24 7 11 mph 1013.9mb 59f 69f
10:18 3 8 mph 1013.9mb 59f 69f
10:12 5 6 mph 1013.7mb 59f 69f
10:06 1 3 mph 1013.7mb 59f 69f
10:00  -  3 mph 1013.5mb 59f 69f
9:54 2 6 mph 1013.4mb 59f 70f
9:48 2 5 mph 1013.2mb 59f 69f
9:42 2 5 mph 1013.1mb 59f 70f
9:36 1 5 mph 1012.9mb 59f 71f
9:30 3 6 mph 1012.7mb 59f 71f
9:24 2 5 mph 1012.6mb 59f 71f
9:18 2 5 mph 1012.5mb 59f 71f
9:12 1 3 mph 1012.3mb 59f 71f
9:06 2 3 mph 1012.2mb 59f 72f
9:00  -  2 mph 1012.1mb 59f 71f
8:54  -  2 mph 1012mb 59f 70f
8:48  -  1 mph 1011.9mb 59f 68f
8:42  -  2 mph 1011.8mb 59f 69f
8:36 2 6 mph 1011.6mb 59f 69f
8:30 2 5 mph 1011.4mb 59f 68f
8:24 1 5 mph 1011.3mb 59f 69f
8:18 2 5 mph 1011.3mb 59f 67f
8:12  -  1 mph 1011.2mb 59f 69f
8:06  -  1 mph 1011.2mb 59f 67f
8:00  -  1 mph 1011.1mb 59f 69f
7:54  -  1 mph 1011mb 59f 69f
7:48  -  mph 1010.9mb 59f 68f
7:42  -  1 mph 1010.7mb 59f 68f
7:36  -  1 mph 1010.7mb 58f 68f
7:30  -  1 mph 1010.6mb 58f 69f
7:24  -  2 mph 1010.5mb 58f 69f
7:18  -  1 mph 1010.3mb 59f 69f
7:12  -  mph 1010.2mb 58f 68f
7:06  -  1 mph 1010.2mb 58f 68f
7:00 1 3 mph 1010.1mb 58f 68f
6:54 1 2 mph 1010.1mb 58f 67f
6:48 1 2 mph 1009.9mb 58f 67f
6:42  -  2 mph 1009.9mb 58f 67f
6:36 2
mph
1009.9mb 58f 68f
6:30  -  2 mph 1009.8mb 58f 65f
6:24  -  2 mph 1009.8mb 58f 65f
6:18  -  2 mph 1009.6mb 58f 65f
6:12 3 5 mph 1009.6mb 58f 64f
6:06 5
mph
1009.6mb 58f 63f
6:00 3 6 mph 1009.5mb 58f 63f
5:54 2 3 mph 1009.4mb 57f 64f
5:48 2 5 mph 1009.3mb 57f 65f
5:42 3 5 mph 1009.3mb 57f 66f
5:36 2 5 mph 1009.2mb 57f 68f
5:30  -  5 mph 1009.2mb 57f 69f
5:24  -  3 mph 1009.2mb 57f 74f
5:18 3 5 mph 1009.1mb 58f 72f
5:12 3 6 mph 1009.1mb 57f 70f
5:06 5 6 mph 1009.1mb 57f 66f
5:00 5 6 mph 1009mb 57f 66f
4:54 6
mph
1009mb 58f 68f
4:48 2 3 mph 1009mb 58f 73f
4:42 3
mph
1009mb 58f 71f
4:36 1 2 mph 1009mb 58f 73f
4:30 1 2 mph 1009mb 57f 74f
4:24 2 5 mph 1009mb 57f 74f
4:18 6 8 mph 1008.9mb 57f 71f
4:12 7 9 mph 1008.9mb 57f 69f
4:06 7 10 mph 1008.9mb 57f 71f
4:00 6 7 mph 1008.9mb 56f 71f
3:54 8 9 mph 1009mb 55f 71f
3:48 5 8 mph 1009mb 55f 75f
3:42 6 8 mph 1009mb 56f 74f
3:36 6 7 mph 1008.9mb 56f -
3:30 5 6 mph 1008.9mb 57f 82f
3:24 3
mph
1008.8mb 56f 82f
3:18 2 5 mph 1008.8mb 56f 82f
3:12 5 6 mph 1008.8mb 56f 81f
3:06 5 6 mph 1008.8mb 56f 81f
3:00 5 6 mph 1008.8mb 58f 81f
2:54 5 6 mph 1008.9mb 58f 81f
2:48 6 8 mph 1008.9mb 59f 82f
2:42 5 6 mph 1008.9mb 59f 82f
2:36 5
mph
1008.9mb 59f 81f
2:30 3 7 mph 1008.9mb 59f 81f
2:24 3 5 mph 1008.9mb 59f 81f
2:18 5 6 mph 1008.9mb 59f 81f
2:12 3 5 mph 1009mb 58f 80f
2:06 5 6 mph 1009mb 57f 80f
2:00 3 5 mph 1009.1mb 58f 80f
1:54 3 5 mph 1009.1mb 58f 80f
1:48 3 5 mph 1009.1mb 57f 80f
1:42 3 5 mph 1009.1mb 57f 80f
1:36 2 5 mph 1009.1mb 58f 80f
1:30 2 3 mph 1009.2mb 57f 80f
1:24 2 3 mph 1009.2mb 57f 80f
1:18 2
mph
1009.2mb 56f 80f
1:12 2 5 mph 1009.2mb 56f 80f
1:06 3
mph
1009.2mb 56f 79f
1:00 3 6 mph 1009.3mb 56f 79f
12:54 5 6 mph 1009.3mb 56f 79f
12:48  -  mph 1009.3mb 57f 78f
12:42  -  mph 1009.3mb 57f 78f
12:36  -  mph 1009.3mb 57f 78f
12:30 2 3 mph 1009.4mb 57f 79f
12:24 2 3 mph 1009.4mb 58f 79f
12:18 2 5 mph 1009.4mb 58f 79f
12:12 3 5 mph 1009.4mb 58f 78f
12:06 3 6 mph 1009.4mb 58f 78f
12:00 2 3 mph - 58f 78f
11:54 2 3 mph - 58f 78f
11:48 2 5 mph 1009.4mb 58f 78f
11:42 2 3 mph 1009.4mb 57f 78f
11:36 3
mph
1009.4mb 57f 77f
11:30 2 5 mph 1009.4mb 57f -
11:24 5 6 mph 1009.4mb 58f -
11:18 2 5 mph 1009.4mb 58f 77f
11:12 5 6 mph 1009.4mb 58f 77f
11:06 5 6 mph 1009.4mb 58f 77f
11:00 5 7 mph 1009.4mb - -
10:54 5 7 mph 1009.5mb - -
10:48 2 5 mph 1009.5mb 58f 74f
10:42 3 5 mph 1009.5mb 58f 74f
10:36 3 6 mph 1009.6mb 58f 75f
10:30 5 7 mph 1009.6mb 58f 74f
10:24 6 8 mph 1009.6mb 58f 74f
10:18 6 7 mph 1009.5mb - 73f
10:12 6 7 mph 1009.5mb - 72f
10:06 6 8 mph 1009.5mb - 72f
10:00 6 8 mph 1009.4mb 58f 71f
9:54 6 8 mph 1009.4mb 58f 72f
9:48 6 7 mph 1009.3mb 58f 71f
9:42 5 6 mph 1009.3mb 58f 71f
9:36 5 7 mph 1009.3mb 58f 71f
9:30 5 6 mph 1009.3mb 58f -
9:24 5 6 mph 1009.3mb 58f -
9:18 5 6 mph 1009.3mb 58f 69f
9:12 3 5 mph 1009.2mb 58f 69f
9:06 5 6 mph 1009.1mb 58f 69f
9:00 5 6 mph 1009.1mb 58f 69f
8:54 5 6 mph 1009mb 58f 69f
8:48 5 6 mph 1009.1mb 58f 68f
8:42 5 6 mph 1009.1mb 58f 69f
8:36 3 5 mph 1009.1mb 58f 69f
8:30 5
mph
1009.1mb 58f 68f
8:24 3 5 mph 1009.1mb 58f 68f
8:18 2 3 mph 1009.2mb 58f 68f
8:12 2 3 mph - - -
8:06 2 5 mph - - -
8:00 3 5 mph - - -
7:54 3
mph
1009.2mb 58f 69f
7:48 1 2 mph 1009.2mb 58f 69f
7:42  -  1 mph 1009.1mb 58f 70f
7:36 1 3 mph 1009.1mb 58f 70f
7:30 3 6 mph 1009.1mb 58f 70f
7:24 5 6 mph 1009mb 58f 69f
7:18 3 5 mph 1008.9mb 58f 69f
7:12 3 6 mph 1009mb 58f 68f
7:06 5 6 mph 1009mb 58f 67f
7:00 3 5 mph 1009mb 58f 67f
6:54 5
mph
1008.9mb 58f 67f
6:48 5 6 mph 1008.9mb 58f 67f
6:42 3 5 mph 1008.8mb 58f 64f
6:36 5 6 mph 1008.8mb 58f 64f
6:30 5 6 mph 1008.6mb 58f 64f
6:24 5 6 mph 1008.6mb 58f 64f
6:18 2 3 mph 1008.5mb 58f 63f
6:12  -  1 mph 1008.5mb 58f 62f
6:06  -  1 mph 1008.5mb 58f 62f
6:00  -  1 mph 1008.3mb 57f 62f
5:54  -  1 mph 1008.4mb 57f 62f
5:48  -  2 mph 1008.3mb 58f 62f
5:42 2 3 mph 1008.3mb 57f 62f
5:36 3 6 mph 1008.3mb 57f 61f
5:30 5 6 mph 1008.3mb 57f 62f
5:24 3 5 mph 1008.2mb 57f 62f
5:18 5
mph
1008.1mb 58f 61f
5:12 2 5 mph 1008mb 58f 61f
5:06 5 6 mph 1007.9mb 58f 61f
5:00 5 6 mph 1007.9mb 58f 62f
4:54 5 6 mph 1007.9mb 57f 62f
4:48 3 6 mph 1007.8mb 57f 62f
4:42 3 5 mph 1007.9mb 58f 61f
4:36 5
mph
1008mb 57f 62f
4:30 1
mph
1008mb 57f 62f
4:24 1 2 mph 1008mb 57f 62f
4:18 2 3 mph 1008.1mb 57f 62f
4:12 2 3 mph 1008.2mb 57f 62f
4:06 2 3 mph 1008.3mb 58f 62f
4:00 1 3 mph 1008.3mb 58f 62f
3:54 3 5 mph 1008.3mb 58f 62f
3:48 3
mph
1008.3mb 58f 62f
3:42 3 5 mph 1008.3mb 58f 62f
3:36 5 6 mph 1008.3mb 58f 62f
3:30 5
mph
1008.3mb 58f 62f
3:24 2 3 mph 1008.3mb 57f 62f
3:18 3
mph
1008.3mb 57f 62f
3:12 3
mph
1008.2mb 56f 62f
3:06 3
mph
1008.3mb 57f 62f
3:00 2 3 mph 1008.3mb 58f 62f
2:54 3
mph
1008.2mb 58f 62f
2:48  -  mph - 58f 62f
2:42  -  mph - 58f 62f
2:36  -  mph - 57f 62f
2:30 3 6 mph 1008.3mb 57f 63f
2:24 3 5 mph 1008.3mb 57f 62f
2:18 2
mph
1008.3mb 57f 62f
2:12 2 3 mph 1008.2mb 56f 63f
2:06 2
mph
1008.1mb 56f 63f
2:00 2 3 mph 1008.2mb 56f 63f
1:54 3
mph
1008.3mb 56f 63f
1:48 2
mph
1008.3mb 56f 63f
1:42 2 5 mph 1008.4mb 57f 63f
1:36 5 7 mph 1008.5mb 56f 63f
1:30 5 6 mph 1008.6mb 56f 63f
1:24 5 6 mph 1008.6mb 56f 63f
1:18 5
mph
1008.6mb 56f 63f
1:12 2 3 mph 1008.7mb 56f 63f
1:06 2
mph
1008.7mb 56f 63f
1:00  -  2 mph 1008.7mb 56f 62f
12:54 1 2 mph 1008.9mb 56f 62f
12:48  -  1 mph 1008.7mb 56f 63f
12:42  -  1 mph 1008.8mb 57f 64f
12:36  -  mph 1008.8mb 57f 64f
12:30  -  1 mph 1008.8mb 57f 64f
12:24 1 2 mph 1008.9mb 57f 64f
12:18 1 2 mph 1008.9mb 57f 63f
12:12 1 2 mph 1008.9mb 57f 62f
12:06  -  1 mph 1009mb 57f 63f
12:00 2
mph
1008.9mb 57f 63f
Qua 09/02 11:54 1 3 mph 1009mb 57f 63f
11:48 2 3 mph 1009mb 57f 63f
11:42 2 3 mph 1009mb 57f 63f
11:36 3 5 mph 1009mb 57f 63f
11:30 1 3 mph 1009mb 57f 62f
11:24  -  2 mph 1009mb 57f 63f
11:18  -  3 mph 1009.1mb 57f 63f
11:12 2 3 mph 1009.1mb 57f 63f
11:06 2 3 mph 1009.1mb 57f 64f
11:00 1 2 mph 1009.1mb 57f 64f
10:54  -  2 mph 1009.1mb 57f 64f
10:48 1 6 mph 1009.1mb 57f 64f
10:42 6 7 mph 1009.2mb 57f 62f
10:36 5 6 mph 1009.1mb 58f 64f
10:30 5 6 mph 1009.1mb 58f 63f
10:24 3 5 mph 1009mb 58f 64f
10:18 1 2 mph 1009.1mb 58f 65f
10:12 2
mph
1009.3mb 58f 65f
10:06 1 3 mph 1009.4mb 58f 65f
10:00 3 5 mph 1009.4mb 58f 64f
9:54 3
mph
1009.5mb 58f 65f
9:48  -  5 mph 1009.6mb 58f 65f
9:42 5 6 mph 1009.5mb 58f 64f
9:36 3
mph
1009.6mb 58f 64f
9:30  -  5 mph 1009.5mb 58f 65f
9:24 5 6 mph 1009.4mb 58f 65f
9:18 2 5 mph 1009.4mb 58f 66f
9:12 2 5 mph 1009.4mb 58f 66f
9:06 5 8 mph 1009.5mb 59f 65f
9:00 7 9 mph 1009.5mb 59f -
8:54 2 6 mph 1009.3mb 59f -
8:48 5 8 mph 1009.3mb 59f 65f
8:42 6 7 mph 1009.3mb 59f 66f
8:36 3 5 mph 1009.3mb 59f 68f
8:30 3
mph
1009.3mb 59f 68f
8:24 3 6 mph 1009.5mb 59f 66f
8:18 6 7 mph 1009.4mb 59f 66f
8:12 2 5 mph 1009.3mb 59f 69f
8:06 2 5 mph 1009.3mb 58f 69f
8:00 3 5 mph 1009.3mb 58f 68f
7:54 6
mph
1009.3mb 58f 68f
7:48 6
mph
1009.2mb 58f 68f
7:42 2 3 mph 1009.2mb 58f 70f
7:36  -  2 mph 1009mb 58f 70f
7:30 2 3 mph 1009mb 58f 69f
7:24 3 5 mph 1009mb 58f 69f
7:18 3 5 mph 1008.9mb 58f 70f
7:12 2 3 mph 1008.8mb 58f 71f
7:06 2 6 mph 1008.7mb 58f 71f
7:00 6 8 mph 1008.7mb 58f 70f
6:54 1 7 mph 1008.6mb 58f 76f
6:48 6 9 mph 1008.5mb 58f 76f
6:42 7 11 mph 1008.6mb 58f 76f
6:36 7 10 mph 1008.7mb 58f 77f
6:30 8 11 mph 1008.8mb 58f 77f
6:24 8 13 mph 1008.8mb 58f 77f
6:18 8 14 mph 1008.7mb 58f 78f
6:12 9 14 mph 1008.7mb 58f 78f
6:06 10 14 mph 1008.7mb 58f 78f
6:00 7 14 mph 1008.8mb 58f 78f
5:54 10 16 mph 1008.8mb 58f 79f
5:48 10 16 mph 1008.9mb 58f 79f
5:42 9 14 mph 1008.9mb 58f 79f
5:36 8 14 mph 1008.9mb 58f 79f
5:30 11 15 mph 1009mb 57f 79f
5:24 9 13 mph 1009mb 57f 79f
5:18  -  mph - 57f 79f
5:12  -  mph - 57f 80f
5:06 9 14 mph 1009.1mb 58f 80f
5:00 8 13 mph 1009.3mb 57f 80f
4:54 6 10 mph 1009.3mb 57f 81f
4:48 7 13 mph 1009.4mb 58f 81f
4:42 10 13 mph 1009.4mb 57f 81f
4:36 7 15 mph 1009.5mb 57f 81f
4:30 6 14 mph 1009.6mb 57f 81f
4:24 8 13 mph 1009.6mb 58f 81f
4:18 8 15 mph 1009.6mb 57f 81f
4:12 8 13 mph 1009.6mb 57f 81f
4:06 8 14 mph 1009.8mb 57f 81f
4:00 9 14 mph 1009.9mb 58f 81f
3:54 7 13 mph 1010mb 58f 81f
3:48 5 11 mph 1010.1mb 57f 81f
3:42 7 10 mph 1010.2mb 57f 81f
3:36 2 5 mph 1010.3mb 57f 75f
3:30 2 5 mph 1010.4mb 57f 71f
3:24 2 3 mph 1010.5mb 56f 69f
3:18 2 6 mph 1010.5mb 56f 69f
3:12 2 5 mph 1010.6mb 56f 70f
3:06 2 6 mph 1010.6mb 57f 71f
3:00 2 6 mph 1010.7mb 57f 68f
2:54 3 5 mph 1010.7mb 58f 70f
2:48 5 6 mph 1010.7mb 58f 67f
2:42 5 6 mph 1010.9mb 57f 64f
2:36 5 7 mph 1010.9mb 58f 66f
2:30 2 6 mph 1010.9mb 58f 68f
2:24 1 6 mph 1011mb 58f 69f
2:18 5 6 mph 1011mb 59f 66f
2:12 3 7 mph 1011.1mb 59f 67f
2:06 6 9 mph 1011.2mb 59f 64f
2:00 7
mph
1011.2mb 58f 66f
1:54 5 7 mph 1011.2mb 58f 68f
1:48 7 8 mph 1011.2mb 58f 70f
1:42 7 8 mph 1011.2mb 57f 70f
1:36 6 9 mph 1011.3mb 57f 70f
1:30 6 8 mph 1011.4mb 57f 71f
1:24 6 8 mph 1011.5mb 57f 69f
1:18 7 9 mph 1011.5mb 57f 69f
1:12 6 9 mph 1011.5mb 56f 67f
1:06 7 9 mph 1011.6mb 56f 69f
1:00 7 9 mph 1011.6mb 56f 68f
12:54 7 9 mph 1011.6mb 56f 69f
12:48 6 8 mph 1011.7mb 56f 67f
12:42 6 7 mph 1011.8mb 56f 68f
12:36 6 8 mph 1011.8mb 56f 68f
12:30 6 8 mph 1011.8mb 56f 69f
12:24 7 8 mph 1011.9mb 56f 68f
12:18 7 8 mph 1012mb 56f 68f
12:12 6 8 mph 1012mb 56f 68f
12:06 7 9 mph 1012.1mb 56f 67f
12:00 7 9 mph 1012.1mb 56f 67f
11:54 7 9 mph 1012.2mb 56f 65f
11:48 7
mph
1012.3mb 56f 65f
11:42 6 7 mph 1012.3mb 57f 66f
11:36 6 7 mph 1012.5mb 56f 65f
11:30 7
mph
1012.5mb 56f 66f
11:24 6
mph
1012.5mb 57f 66f
11:18 5 6 mph 1012.6mb 57f 66f
11:12 6
mph
1012.6mb 57f 66f
11:06 6 7 mph 1012.7mb 57f 65f
11:00 6 7 mph 1012.8mb 56f 65f
10:54 5 7 mph 1012.7mb 57f 65f
10:48 7 8 mph 1012.7mb 57f 64f
10:42 6
mph
1012.7mb 57f 64f
10:36 6
mph
1012.7mb 57f 64f
10:30 5 6 mph 1012.8mb 57f 63f
10:24 5 6 mph 1012.8mb 57f 64f
10:18 3 6 mph 1012.9mb 57f -
10:12 3 5 mph 1013mb 57f -
10:06 5 6 mph 1013.1mb 58f -
10:00 5 6 mph 1013.1mb 58f 63f
9:54 5 7 mph 1013.1mb 57f 63f
9:48 6 7 mph 1013.2mb 57f 62f
9:42 5 7 mph 1013.2mb 58f 63f
9:36 6 7 mph 1013.2mb 58f 63f
9:30 5 6 mph 1013.2mb 58f 63f
9:24 5
mph
1013.3mb 58f 64f
9:18 2 5 mph 1013.2mb 58f 65f
9:12 3 5 mph 1013.2mb 58f 64f
9:06 3 5 mph 1013.3mb 58f 64f
9:00 5 6 mph 1013.4mb 58f 63f
8:54 3 5 mph 1013.4mb 58f 65f
8:48 2 3 mph 1013.4mb 58f 65f
8:42 3 6 mph 1013.5mb 58f 64f
8:36 3 5 mph 1013.4mb 58f 63f
8:30 3 5 mph 1013.3mb 58f 63f
8:24 5 6 mph 1013.4mb 58f 62f
8:18 6 7 mph 1013.4mb 58f 63f
8:12 2 5 mph 1013.5mb 58f 65f
8:06 3 5 mph 1013.5mb 58f 64f
8:00 3 6 mph 1013.6mb 58f 64f
7:54 3 5 mph 1013.7mb 58f 65f
7:48 3 5 mph 1013.7mb 58f 65f
7:42 2 6 mph 1013.8mb 58f 65f
7:36 3 5 mph 1013.7mb 58f 65f
7:30 3 5 mph 1013.8mb 58f 65f
7:24 3 5 mph 1013.8mb 58f 65f
7:18 1 5 mph 1013.8mb 58f 66f
7:12 2 3 mph 1013.8mb 58f 66f
7:06 2 5 mph 1013.8mb 58f 66f
7:00 3 5 mph 1013.7mb 58f 66f
6:54 2 5 mph 1013.7mb 58f 66f
6:48 3 5 mph 1013.7mb 58f 66f
6:42  -  5 mph 1013.8mb 58f 64f
6:36 2 3 mph 1013.8mb 58f 64f
6:30 2 5 mph 1013.8mb 58f 63f
6:24 5 6 mph 1013.7mb 58f 63f
6:18 3 6 mph 1013.7mb 58f 62f
6:12 3 6 mph 1013.6mb 58f 62f
6:06 5 6 mph 1013.5mb 58f 62f
6:00 6 7 mph 1013.5mb 58f 62f
5:54 5 6 mph 1013.6mb 58f 61f
5:48 5 8 mph 1013.6mb 58f 62f
5:42 6 8 mph 1013.6mb 58f 63f
5:36 6 7 mph 1013.6mb 58f 63f
5:30 2 5 mph 1013.6mb 58f 62f
5:24 2 3 mph 1013.6mb 58f 62f
5:18 5 7 mph 1013.7mb 58f 62f
5:12 2 6 mph 1013.7mb 58f 63f
5:06 5 6 mph 1013.7mb 58f 63f
5:00 3 5 mph 1013.7mb 57f 64f
4:54 2 5 mph 1013.6mb 57f 64f
4:48 2 6 mph 1013.6mb 57f 63f
4:42 3 6 mph 1013.5mb 57f 63f
4:36 3 6 mph 1013.6mb 57f 63f
4:30 2 9 mph 1013.6mb 57f 63f
4:24 7 10 mph 1013.7mb 57f 62f
4:18 5
mph
1013.7mb 57f 63f
4:12 1 6 mph 1013.7mb 57f 63f
4:06 3 5 mph 1013.6mb 57f 64f
4:00 1 2 mph 1013.6mb 57f 64f
3:54 1 3 mph 1013.7mb 57f 63f
3:48 2 3 mph 1013.7mb 57f 64f
3:42 3 6 mph 1013.8mb 56f 63f
3:36 5 7 mph 1013.9mb 56f 64f
3:30 3 7 mph 1014.1mb 56f 62f
3:24 6 8 mph 1014.1mb 56f 62f
3:18 5 6 mph 1014.1mb 56f 62f
3:12 5 6 mph 1014.1mb 56f 62f
3:06 2 5 mph 1014.1mb 56f 63f
3:00 5 6 mph 1014.1mb 56f 62f
2:54 3 6 mph 1014.1mb 56f 61f
2:48 3 6 mph 1014.2mb 56f 61f
2:42 2 3 mph 1014.3mb 55f 61f
2:36 2 5 mph 1014.3mb 54f 60f
2:30 3 5 mph 1014.4mb 55f 60f
2:24 2
mph
1014.5mb 55f 60f
2:18  -  3 mph 1014.6mb 55f -
2:12  -  1 mph 1014.6mb 55f -
2:06  -  5 mph 1014.7mb 55f -
2:00 3 5 mph 1014.7mb 56f 61f
1:54 2 6 mph 1014.8mb 58f 61f
1:48 5 7 mph 1014.9mb 57f 61f
1:42 6 7 mph 1015mb 57f 61f
1:36 2 5 mph 1015mb 57f 61f
1:30 5 6 mph 1015.1mb 57f 61f
1:24 3 5 mph 1015.2mb 57f 61f
1:18 3 6 mph 1015.2mb 57f 61f
1:12 5 6 mph 1015.3mb 57f 60f
1:06 3 6 mph 1015.3mb 57f 60f
1:00 2 6 mph 1015.3mb 57f 62f
12:54 3 6 mph 1015.3mb 57f 62f
12:48  -  5 mph 1015.4mb 57f 65f
12:42 5 7 mph 1015.3mb 56f 67f
12:36 2 7 mph 1015.3mb 56f 67f
12:30 5 8 mph 1015.2mb 56f 67f
12:24 2 7 mph 1015.2mb 56f 67f
12:18 6 10 mph 1015.3mb 56f 67f
12:12 3 8 mph 1015.3mb 56f 67f
12:06 5 10 mph 1015.3mb 56f 67f
12:00 5 9 mph 1015.3mb 56f 67f
Ter 09/01 11:54 7 11 mph 1015.2mb 56f 67f
11:48 8 14 mph 1015.2mb 56f 67f
11:42 7 11 mph 1015.2mb 56f 67f
11:36 5 10 mph 1015.2mb 56f 66f
11:30 5 9 mph 1015.3mb 56f 66f
11:24 1 3 mph 1015.3mb 56f 63f
11:18 2 3 mph 1015.3mb 56f 61f
11:12 3 5 mph 1015.3mb 56f 61f
11:06 2 3 mph 1015.3mb 57f 61f
11:00 2
mph
1015.3mb 57f 61f
10:54 2 3 mph 1015.4mb 57f 61f
10:48 5 6 mph 1015.4mb 58f 60f
10:42 3
mph
1015.4mb 58f 62f
10:36 2 3 mph 1015.4mb 58f 62f
10:30 2 3 mph 1015.5mb 58f 62f
10:24 3 5 mph 1015.5mb 58f 62f
10:18 2 3 mph 1015.6mb 58f 62f
10:12 2 3 mph 1015.6mb 58f 62f
10:06  -  2 mph 1015.6mb 58f 63f
10:00  -  1 mph 1015.6mb 58f 62f
9:54 2
mph
1015.6mb 58f 63f
9:48 2 3 mph 1015.6mb 58f 62f
9:42 3
mph
1015.7mb 58f 61f
9:36 2 3 mph 1015.8mb 59f 63f
9:30 1 3 mph 1015.8mb 59f 63f
9:24 2 3 mph 1015.8mb 59f 64f
9:18  -  5 mph 1015.8mb 59f 63f
9:12 5 7 mph 1015.7mb 59f 63f
9:06 3 7 mph 1015.7mb 59f 63f
9:00 6 7 mph 1015.6mb 59f 64f
8:54 1 6 mph 1015.6mb 59f 68f
8:48 3 7 mph 1015.5mb 59f 68f
8:42  -  8 mph 1015.5mb 59f 68f
8:36 5 8 mph 1015.5mb 59f 69f
8:30 6 10 mph 1015.5mb 60f 69f
8:24 7 10 mph 1015.4mb 60f 68f
8:18 7 11 mph 1015.4mb 60f 68f
8:12 7 9 mph 1015.4mb 60f 68f
8:06 6 10 mph 1015.4mb 60f 68f
8:00 3 7 mph 1015.4mb 60f 68f
7:54 3 6 mph 1015.5mb 61f 68f
7:48 5 6 mph 1015.4mb 61f 68f
7:42 5 6 mph 1015.3mb 61f 68f
7:36 3 6 mph 1015.2mb 61f 67f
7:30 2 6 mph 1015.2mb 61f 67f
7:24 1 3 mph 1015.1mb 61f 66f
7:18 1 3 mph 1015mb 61f 67f
7:12 1 3 mph 1015mb 61f 67f
7:06 1 6 mph 1015mb 61f 69f
7:00  -  2 mph 1014.9mb 61f 69f
6:54  -  3 mph 1015mb 61f 69f
6:48 2 5 mph 1014.9mb 61f 70f
6:42 3 6 mph 1015mb 61f 70f
6:36  -  3 mph 1015mb 61f 70f
6:30 3 6 mph 1015mb 61f 71f
6:24 3 7 mph 1015mb 61f 71f
6:18 3 6 mph 1015mb 61f 72f
6:12 3 5 mph 1015mb 61f 72f
6:06 2 5 mph 1015mb 61f 73f
6:00 1 3 mph 1015.1mb 61f 72f
5:54  -  2 mph 1015.1mb 61f 71f
5:48 2 3 mph 1015mb 61f 68f
5:42  -  3 mph 1015mb 61f 73f
5:36 3
mph
1015mb 60f 72f
5:30 2 3 mph 1014.9mb 60f 72f
5:24  -  3 mph 1014.9mb 60f 73f
5:18 3 5 mph 1014.9mb 61f 72f
5:12 5 7 mph 1014.9mb 61f 71f
5:06 5 7 mph 1014.8mb 61f 71f
5:00 5 6 mph 1014.9mb 61f 71f
4:54 5 6 mph 1014.8mb 60f 74f
4:48 3 6 mph 1014.9mb 60f 74f
4:42 5 6 mph 1014.9mb 60f 74f
4:36 5
mph
1014.8mb 60f 74f
4:30 3 6 mph 1014.9mb 60f 74f
4:24 5 6 mph 1014.9mb 60f 74f
4:18 5 8 mph 1015mb 60f 74f
4:12 6 7 mph 1015mb 60f 74f
4:06 6 8 mph 1014.9mb 60f 73f
4:00 6 8 mph 1014.9mb 60f 74f
3:54 7 9 mph 1015mb 59f 73f
3:48 7 8 mph 1014.9mb 59f 73f
3:42 5 8 mph 1014.9mb 58f 72f
3:36 5 6 mph 1015mb 59f 72f
3:30 5 6 mph 1015mb 58f 72f
3:24 3 5 mph 1015mb 59f 72f
3:18 2 3 mph 1015mb 59f 73f
3:12 2 5 mph 1015mb 59f 73f
3:06 3 6 mph 1015mb 59f 73f
3:00 5 7 mph 1015mb 59f 72f
2:54 3 5 mph 1015.1mb 59f 72f
2:48  -  2 mph 1015mb 59f 73f
2:42 2
mph
1015mb 59f 72f
2:36 2 3 mph 1015.1mb 59f 72f
2:30 3 5 mph 1015.1mb 59f 72f
2:24 6 8 mph 1015.2mb 59f 72f
2:18 7 9 mph 1015.2mb 59f 72f
2:12 3 6 mph 1015.3mb 59f 71f
2:06 3 8 mph 1015.3mb 59f 71f
2:00 5 7 mph 1015.4mb 59f 71f
1:54 5 7 mph 1015.3mb 60f 71f
1:48 3 9 mph 1015.4mb 60f 70f
1:42 6 9 mph 1015.5mb 60f 70f
1:36 6 8 mph 1015.4mb 59f 71f
1:30 7 8 mph 1015.3mb 58f 71f
1:24 7 10 mph 1015.4mb 58f 70f
1:18 8 11 mph 1015.3mb 56f 70f
1:12 9 13 mph 1015.3mb 56f 69f
1:06 8 10 mph 1015.4mb 57f 69f
1:00 7 9 mph 1015.5mb 57f 68f
12:54 8 10 mph 1015.5mb 58f 69f
12:48 7 11 mph 1015.5mb 58f 69f
12:42 9 10 mph 1015.4mb 58f 69f
12:36 8 10 mph 1015.4mb 58f 69f
12:30 9 14 mph 1015.3mb 59f 69f
12:24 8 14 mph 1015.4mb 58f 69f
12:18 9 14 mph 1015.4mb 59f -
12:12 8 11 mph 1015.4mb 58f -
12:06 8 13 mph 1015.5mb 58f -
12:00 9 13 mph 1015.6mb 58f 69f
11:54 8 11 mph 1015.6mb 58f 68f
11:48 6 10 mph - 58f 68f
11:42 6 13 mph - 58f 68f
11:36 6 11 mph - 58f 68f
11:30 7 10 mph 1015.7mb 58f 67f
11:24 7 10 mph 1015.6mb 58f 67f
11:18 8 11 mph 1015.8mb 58f 67f
11:12 7 14 mph 1015.8mb 58f 67f
11:06 9 13 mph 1015.9mb 58f 66f
11:00 9 13 mph 1015.8mb 58f 66f
10:54 10 14 mph 1015.8mb 58f 66f
10:48 10 14 mph 1015.8mb 58f 66f
10:42 8 15 mph 1015.8mb 58f 66f
10:36 9 16 mph 1015.7mb 58f 66f
10:30 9 17 mph 1015.7mb 58f 66f
10:24 9 15 mph 1015.6mb 58f 66f
10:18 9 17 mph 1015.6mb 58f 66f
10:12 9 14 mph 1015.6mb 58f 66f
10:06 7 10 mph 1015.5mb 59f 66f
10:00 8 14 mph 1015.6mb 59f 66f
9:54 7 15 mph 1015.5mb 58f 65f
9:48 9 15 mph 1015.5mb 59f 65f
9:42 8 11 mph 1015.6mb 59f 65f
9:36 7 11 mph 1015.6mb 59f 65f
9:30 9 11 mph 1015.6mb 59f 65f
9:24 10 14 mph 1015.6mb 59f 65f
9:18 10 15 mph 1015.7mb 59f 64f
9:12 7 10 mph 1015.6mb 59f 64f
9:06 9 13 mph 1015.6mb 59f 64f
9:00 8 13 mph 1015.7mb 59f 64f
8:54 8 10 mph 1015.7mb 59f 64f
8:48 9 11 mph 1015.8mb 59f 64f
8:42 10 13 mph 1015.6mb 59f 63f
8:36 11 14 mph 1015.6mb 59f 63f
8:30 10 11 mph 1015.5mb 59f 63f
8:24 10 11 mph 1015.4mb 59f 62f
8:18 9 10 mph 1015.4mb 59f 62f
8:12 8 9 mph 1015.3mb 59f 62f
8:06 8 10 mph 1015.3mb 59f 62f
8:00 8 10 mph 1015.2mb 59f 62f
7:54 8 10 mph 1015.1mb 59f 62f
7:48 8 11 mph 1015mb 59f 63f
7:42 8 11 mph 1014.9mb 59f 63f
7:36 8 10 mph 1014.9mb 59f 63f
7:30 9 11 mph 1014.8mb 59f 63f
7:24 8 11 mph 1014.9mb 59f 63f
7:18 9 13 mph 1014.8mb 59f 63f
7:12 10 13 mph 1014.8mb 59f 64f
7:06 11 15 mph 1014.8mb 59f 64f
7:00 10 13 mph 1014.7mb 59f 64f
6:54 10 14 mph 1014.6mb 59f 63f
6:48 10 13 mph 1014.5mb 59f 63f
6:42 11 13 mph 1014.5mb 59f 63f
6:36 11
mph
1014.4mb 59f 63f
6:30 10
mph
- - 63f
6:24 8 9 mph - - 63f
6:18 7 8 mph 1014.1mb 59f 62f
6:12 6 9 mph 1014.1mb 59f 62f
6:06 7 8 mph 1013.9mb 59f 63f
6:00 7 8 mph 1014mb 59f 62f
5:54 6 8 mph 1013.8mb 59f 62f
5:48  -  mph 1013.7mb 59f 62f
5:42  -  mph 1013.8mb 59f 63f
5:36  -  mph 1013.9mb 59f 63f
5:30 8
mph
1013.8mb 59f 63f
5:24 7 9 mph 1013.7mb 59f 63f
5:18 7 9 mph 1013.7mb 59f 62f
5:12 9 10 mph 1013.5mb 60f 63f
5:06 9 10 mph 1013.3mb 59f 63f
5:00 10 13 mph 1013.1mb 59f 64f
4:54 9 10 mph 1013mb 59f 63f
4:48 8 10 mph 1012.9mb 59f 63f
4:42 10 11 mph 1012.9mb 59f 64f
4:36 11 13 mph 1012.7mb 59f 64f
4:30 11 13 mph 1012.6mb 59f 65f
4:24 11
mph
1012.6mb 59f 65f
4:18 10 11 mph - 59f 65f
4:12 10 11 mph - 59f 65f
4:06 9 13 mph - 58f 64f
4:00 11 13 mph 1012.2mb 58f 65f
3:54 11 13 mph 1012.1mb 58f 65f
3:48 11 13 mph 1012.1mb 58f 66f
3:42 10 14 mph 1011.9mb 58f 66f
3:36 9 14 mph 1011.9mb 58f 66f
3:30 10 14 mph 1011.9mb 58f 66f
3:24 10 13 mph 1011.8mb 58f 66f
3:18 9 13 mph 1011.7mb 58f 66f
3:12 9 13 mph 1011.7mb 58f 66f
3:06 11 14 mph 1011.5mb 58f 66f
3:00 10 14 mph 1011.6mb 58f 66f
2:54 11 14 mph 1011.6mb 58f 66f
2:48 10 13 mph 1011.6mb 58f 66f
2:42 11 14 mph 1011.6mb 58f 66f
2:36 11
mph
1011.6mb 58f 66f
2:30 10 14 mph 1011.5mb 58f 66f
2:24 9 11 mph 1011.6mb 58f 66f
2:18 10 11 mph 1011.6mb 58f 65f
2:12 9 10 mph 1011.6mb 58f 65f
2:06 8 9 mph 1011.5mb 58f 65f
2:00 8 11 mph 1011.6mb 58f 66f
1:54 9 10 mph 1011.5mb 57f 66f
1:48 9 11 mph 1011.5mb 58f 66f
1:42 8 10 mph 1011.5mb 58f 67f
1:36 7 8 mph 1011.4mb 57f 67f
1:30 8 9 mph 1011.4mb 57f 68f
1:24 8 11 mph 1011.5mb 57f 68f
1:18 7 10 mph 1011.3mb 57f 68f
1:12 8 9 mph 1011.2mb 57f 69f
1:06 6 8 mph 1011.3mb 58f 68f
1:00 6 8 mph 1011.3mb 59f -
12:54 7 8 mph 1011.2mb 58f -
12:48 7 10 mph 1011.3mb 58f 68f
12:42 8 9 mph 1011.3mb 58f 69f
12:36 7 8 mph 1011.3mb 58f 69f
12:30 8 10 mph 1011.2mb 57f 70f
12:24 9 10 mph 1011.1mb 57f 69f
12:18 10 11 mph 1011mb 58f 71f
12:12 8 13 mph 1011mb 58f 69f
12:06 10 13 mph 1011.2mb 58f 70f
12:00 11 15 mph - 58f 70f
Seg 08/31 11:54 14 17 mph - 58f 69f
11:48 15 16 mph 1011mb 58f 69f
11:42 15 18 mph 1010.9mb 59f 70f
11:36 14 22 mph 1010.9mb 57f 70f
11:30 16 20 mph 1010.7mb 56f 71f
11:24 14 23 mph 1010.7mb 56f 71f
11:18 13 18 mph 1010.5mb 56f 72f
11:12 13 15 mph 1010.3mb 56f 72f
11:06 11 17 mph 1010.2mb 56f 73f
11:00 14 17 mph 1010.1mb 56f 73f
10:54 15 18 mph 1010.1mb 57f 73f
10:48 11 16 mph 1010mb 57f 73f
10:42 13 16 mph 1010mb 57f 73f
10:36 13 16 mph 1009.8mb 57f 73f
10:30 11 15 mph 1009.9mb 56f 73f
10:24 11 14 mph 1009.8mb 56f 73f
10:18 10 15 mph - 56f 73f
10:12 10 15 mph - 57f 73f
10:06 11 16 mph - 57f 73f
10:00 14 20 mph 1009.7mb 56f 73f
9:54 14 20 mph 1009.7mb 57f 74f
9:48 11 15 mph 1009.7mb 57f 73f
9:42 11 16 mph 1009.7mb 57f 73f
9:36 13 17 mph 1009.7mb 57f 74f
9:30 11 17 mph 1009.7mb 56f 74f
9:24 14 18 mph 1009.6mb 57f 74f
9:18 14 18 mph 1009.5mb 57f -
9:12 10 16 mph 1009.4mb 57f -
9:06 11 16 mph 1009.4mb 57f -
9:00 13 18 mph 1009.4mb 57f 74f
8:54 13 16 mph 1009.2mb 57f 75f
8:48 11 15 mph 1009.2mb 57f 74f
8:42 11 17 mph 1009.1mb 57f 75f
8:36 8 13 mph 1009mb 58f 75f
8:30 9 16 mph 1009mb 58f 75f
8:24 10 16 mph 1008.8mb 58f 76f
8:18 10 15 mph 1008.7mb 58f 76f
8:12 8 14 mph 1008.7mb 58f 76f
8:06 8 13 mph 1008.7mb 58f 76f
8:00 7 14 mph 1008.5mb 58f 76f
7:54 7 13 mph 1008.3mb 59f 76f
7:48 11 16 mph 1008.2mb 59f 76f
7:42 11 17 mph 1008mb 59f 76f
7:36 13 15 mph 1007.9mb 59f 76f
7:00 9 13 mph 1007.6mb 60f 77f
6:54 10 16 mph 1007.5mb 60f 77f
6:48 11 16 mph 1007.4mb 60f 78f
6:42 8 13 mph 1007.4mb 60f 78f
6:36 7 13 mph 1007.3mb 60f 78f
6:30 10 16 mph 1007.3mb 60f 78f
6:24 9 14 mph 1007.2mb 60f 78f
6:18 10 14 mph 1007.2mb 60f 78f
6:12 9 15 mph 1007.1mb 60f 78f
6:06 9 13 mph 1007mb 60f 78f
6:00 10 14 mph 1007.1mb 59f 78f
5:54 9 14 mph 1007mb 60f 78f
5:48 9 15 mph 1007.1mb 60f 78f
5:42 9 18 mph 1007mb 60f 78f
5:36 14 17 mph 1007mb 60f 78f
5:30 11 17 mph 1007.1mb 60f 79f
5:24 11 20 mph 1007mb 60f 79f
5:18 11 16 mph 1007mb 60f 79f
5:12 9 17 mph 1007mb 60f 79f
5:06 14 18 mph 1006.9mb 60f 79f
5:00 10 14 mph 1007mb 60f 79f
4:54 9 14 mph 1007mb 60f 79f
4:48 6 13 mph 1007.1mb 60f 80f
4:42 11 16 mph 1007.1mb 60f 79f
4:36 10 17 mph 1007mb 60f 79f
4:30 11 18 mph 1007mb 60f 79f
4:24 10 15 mph 1007.2mb 60f 80f
4:18 9 14 mph 1007.2mb 60f 80f
4:12 10 17 mph 1007.2mb 60f 80f
4:06 14 18 mph 1007.1mb 60f 80f
4:00 8 14 mph 1007.1mb 60f 80f
3:54 10 21 mph 1007.1mb 60f 80f
3:48 15 21 mph 1007.1mb 60f 79f
3:42 9 17 mph 1007.2mb 60f 80f
3:36 11 21 mph 1007.3mb 60f 79f
3:30 9 18 mph 1007.3mb 59f 80f
3:24 14 21 mph 1007.2mb 59f 79f
3:18 14 24 mph 1007.2mb 59f 80f
3:12 13 18 mph 1007.2mb 59f 80f
3:06 13 20 mph 1007.2mb 59f 80f
3:00 11 17 mph 1007.2mb 58f 80f
2:54 13 18 mph 1007.4mb 59f 79f
2:48 10 18 mph 1007.4mb 59f 80f
2:42 9 17 mph 1007.4mb 59f 80f
2:36 14 20 mph 1007.6mb 59f 79f
2:30 15 23 mph 1007.7mb 59f 80f
2:24 14 22 mph 1007.8mb 59f 80f
2:18 13 23 mph 1007.8mb 59f 80f
2:12 17 26 mph 1007.9mb 59f 79f
2:06 15 22 mph 1008mb 59f 79f
2:00 11 23 mph 1008mb 59f 80f
1:54 16 21 mph 1008mb 59f 79f
1:48 13 16 mph 1008.1mb 56f 79f
1:42 9 14 mph 1008.1mb 58f 80f
1:36 8 21 mph 1008.2mb 57f 79f
1:30 10 16 mph 1008.2mb 58f 79f
1:24 8 16 mph 1008.3mb 59f 79f
1:18 11 18 mph 1008.4mb 59f 79f
1:12 8 17 mph 1008.4mb 58f 79f
1:06 10 18 mph 1008.4mb 58f 79f
1:00 9 16 mph 1008.5mb 58f 79f
12:54 10 14 mph 1008.5mb 59f 79f
12:48 14 22 mph 1008.7mb 55f 79f
12:42 10 15 mph 1008.7mb 55f 79f
12:36 13 20 mph 1008.8mb 57f 79f
12:30 13 20 mph 1008.8mb 58f 79f
12:24 10 14 mph 1008.8mb 59f 79f
12:18 8 13 mph 1009mb 58f 79f
12:12 7 13 mph 1009mb 59f 79f
12:06 9 14 mph 1008.9mb 59f 79f
12:00 10 16 mph 1009mb 59f 79f
11:54 13 18 mph 1009.2mb 58f 78f
11:48 15 18 mph 1009.3mb 59f 78f